Time;durP1;ratioP1;P1;durP2;ratioP2;P2;SDS_P1;SDS_P2;PMS_P1;PMS_P2;Temp;Humidity;BMP_temperature;BMP_pressure;BME280_temperature;BME280_humidity;BME280_pressure;Samples;Min_cycle;Max_cycle;Signal;HPM_P1;HPM_P2
2021/03/13 00:00:14;;;;;;;1.00;0.35;;;11.30;70.30;;;;;;5048751;28;20036;-83
2021/03/13 00:02:44;;;;;;;4.07;0.13;;;11.40;70.40;;;;;;5049487;28;20029;-83
2021/03/13 00:05:13;;;;;;;0.00;0.00;;;11.40;70.40;;;;;;5048391;28;20021;-83
2021/03/13 00:07:39;;;;;;;0.00;0.00;;;11.40;70.40;;;;;;5049407;28;20047;-83
2021/03/13 00:10:06;;;;;;;0.68;0.00;;;11.30;70.40;;;;;;5052236;28;20029;-83
2021/03/13 00:12:32;;;;;;;0.08;0.03;;;11.40;70.50;;;;;;5053200;28;20048;-83
2021/03/13 00:14:58;;;;;;;0.00;0.00;;;11.40;70.50;;;;;;5052439;28;20040;-83
2021/03/13 00:17:24;;;;;;;1.10;0.25;;;11.40;70.50;;;;;;5061970;28;20059;-83
2021/03/13 00:19:50;;;;;;;0.17;0.15;;;11.40;70.50;;;;;;5051754;28;20351;-83
2021/03/13 00:22:16;;;;;;;18.98;0.43;;;11.40;70.50;;;;;;5055640;28;20393;-83
2021/03/13 00:24:43;;;;;;;1.85;0.40;;;11.40;70.40;;;;;;5052871;28;20025;-82
2021/03/13 00:27:09;;;;;;;1.63;0.30;;;11.40;70.40;;;;;;5036134;28;20531;-83
2021/03/13 00:29:36;;;;;;;0.25;0.10;;;11.50;70.50;;;;;;5051760;28;20310;-82
2021/03/13 00:32:02;;;;;;;0.00;0.00;;;11.50;70.50;;;;;;5050523;28;20040;-82
2021/03/13 00:34:28;;;;;;;3.50;0.80;;;11.50;70.50;;;;;;5052271;28;20040;-81
2021/03/13 00:36:54;;;;;;;0.00;0.00;;;11.40;70.50;;;;;;5053524;28;20041;-83
2021/03/13 00:39:20;;;;;;;0.35;0.35;;;11.50;70.70;;;;;;5038897;28;20048;-83
2021/03/13 00:41:46;;;;;;;0.85;0.03;;;11.40;70.80;;;;;;5054168;28;20482;-83
2021/03/13 00:44:12;;;;;;;0.20;0.20;;;11.40;70.90;;;;;;5032573;28;20041;-83
2021/03/13 00:46:41;;;;;;;0.10;0.03;;;11.30;71.00;;;;;;5057012;28;20044;-82
2021/03/13 00:49:07;;;;;;;0.38;0.00;;;11.30;71.10;;;;;;5066381;28;20020;-83
2021/03/13 00:51:33;;;;;;;0.17;0.05;;;11.20;71.10;;;;;;5051287;28;20047;-83
2021/03/13 00:53:59;;;;;;;0.00;0.00;;;11.20;71.30;;;;;;5063040;28;20025;-82
2021/03/13 00:56:25;;;;;;;0.00;0.00;;;11.20;71.30;;;;;;5035727;28;20798;-82
2021/03/13 00:58:51;;;;;;;0.55;0.20;;;11.20;71.40;;;;;;5044530;28;20044;-83
2021/03/13 01:01:17;;;;;;;11.60;0.17;;;11.10;71.40;;;;;;5033135;28;20029;-82
2021/03/13 01:03:44;;;;;;;0.00;0.00;;;11.10;71.50;;;;;;5053482;28;20047;-83
2021/03/13 01:06:10;;;;;;;0.00;0.00;;;11.20;71.60;;;;;;5056655;28;20028;-83
2021/03/13 01:08:36;;;;;;;18.27;0.32;;;11.20;71.50;;;;;;5053110;28;20037;-82
2021/03/13 01:11:02;;;;;;;0.22;0.15;;;11.20;71.50;;;;;;5033769;28;20040;-82
2021/03/13 01:13:28;;;;;;;0.03;0.00;;;11.20;71.60;;;;;;5052253;28;20032;-83
2021/03/13 01:15:54;;;;;;;1.67;0.35;;;11.10;71.50;;;;;;5050132;28;20480;-82
2021/03/13 01:18:20;;;;;;;11.68;0.45;;;11.20;71.50;;;;;;5051295;28;20039;-83
2021/03/13 01:20:48;;;;;;;2.65;0.80;;;11.20;71.60;;;;;;5050789;28;20371;-82
2021/03/13 01:23:14;;;;;;;1.27;0.45;;;11.20;71.60;;;;;;5055627;28;20036;-82
2021/03/13 01:25:40;;;;;;;3.97;0.10;;;11.20;71.60;;;;;;5051991;28;20025;-82
2021/03/13 01:28:06;;;;;;;3.13;0.30;;;11.20;71.60;;;;;;5051977;28;20044;-82
2021/03/13 01:30:32;;;;;;;2.40;0.22;;;11.20;71.60;;;;;;5051912;28;20033;-83
2021/03/13 01:32:58;;;;;;;0.00;0.00;;;11.20;71.60;;;;;;5030378;28;20049;-82
2021/03/13 01:35:25;;;;;;;11.68;0.28;;;11.20;71.50;;;;;;5028795;28;20040;-82
2021/03/13 01:37:52;;;;;;;2.28;0.43;;;11.30;71.60;;;;;;5057131;28;20043;-83
2021/03/13 01:40:18;;;;;;;0.10;0.10;;;11.30;71.60;;;;;;5039853;28;20029;-82
2021/03/13 01:42:45;;;;;;;0.15;0.15;;;11.30;71.50;;;;;;5049900;28;20045;-82
2021/03/13 01:45:12;;;;;;;0.30;0.05;;;11.30;71.60;;;;;;5050446;28;20466;-83
2021/03/13 01:47:38;;;;;;;2.33;0.00;;;11.30;71.50;;;;;;5035155;28;20496;-82
2021/03/13 01:50:06;;;;;;;2.85;0.20;;;11.30;71.50;;;;;;5047084;28;20036;-84
2021/03/13 01:52:32;;;;;;;1.25;0.17;;;11.30;71.60;;;;;;5049782;28;20093;-82
2021/03/13 01:54:58;;;;;;;3.60;0.80;;;11.30;71.50;;;;;;5039987;28;20028;-82
2021/03/13 01:57:24;;;;;;;4.85;0.32;;;11.30;71.60;;;;;;5052753;28;20032;-83
2021/03/13 01:59:50;;;;;;;0.52;0.00;;;11.30;71.50;;;;;;5064692;28;20041;-83
2021/03/13 02:02:17;;;;;;;0.17;0.10;;;11.30;71.50;;;;;;5050229;28;20037;-83
2021/03/13 02:04:43;;;;;;;2.35;0.65;;;11.40;71.60;;;;;;5046753;28;20040;-83
2021/03/13 02:07:17;;;;;;;0.10;0.10;;;11.40;71.50;;;;;;5051023;28;20029;-83
2021/03/13 02:10:02;;;;;;;0.00;0.00;;;11.40;71.50;;;;;;5052204;28;20036;-83
2021/03/13 02:12:48;;;;;;;0.00;0.00;;;11.40;71.40;;;;;;5066175;28;20052;-83
2021/03/13 02:15:25;;;;;;;1.20;0.20;;;11.40;71.40;;;;;;5049829;28;20036;-83
2021/03/13 02:17:56;;;;;;;0.15;0.00;;;11.40;71.40;;;;;;5049111;28;20037;-83
2021/03/13 02:20:44;;;;;;;0.10;0.00;;;11.40;71.40;;;;;;5046218;28;20394;-83
2021/03/13 02:23:10;;;;;;;0.10;0.10;;;11.40;71.40;;;;;;5051187;28;20028;-84
2021/03/13 02:25:55;;;;;;;2.17;0.45;;;11.40;71.30;;;;;;5051736;28;20203;-83
2021/03/13 02:28:31;;;;;;;8.02;0.47;;;11.40;71.40;;;;;;5052438;28;20041;-83
2021/03/13 02:30:57;;;;;;;4.68;0.98;;;11.40;71.40;;;;;;5049174;28;20387;-83
2021/03/13 02:33:31;;;;;;;2.60;0.40;;;11.40;71.50;;;;;;5050219;28;20044;-83
2021/03/13 02:36:16;;;;;;;1.77;0.25;;;11.40;71.40;;;;;;5033832;28;20025;-83
2021/03/13 02:38:47;;;;;;;0.20;0.10;;;11.50;71.50;;;;;;5051578;28;20013;-82
2021/03/13 02:41:18;;;;;;;0.80;0.25;;;11.50;71.50;;;;;;5046662;28;20099;-83
2021/03/13 02:43:49;;;;;;;0.10;0.00;;;11.50;71.50;;;;;;5050238;28;20386;-83
2021/03/13 02:46:17;;;;;;;1.92;1.05;;;11.50;71.50;;;;;;5035519;28;20033;-83
2021/03/13 02:48:43;;;;;;;2.35;0.45;;;11.50;71.50;;;;;;5049359;28;20390;-82
2021/03/13 02:51:09;;;;;;;0.13;0.00;;;11.50;71.50;;;;;;5049554;28;20085;-83
2021/03/13 02:53:35;;;;;;;3.03;0.13;;;11.60;71.50;;;;;;5047482;28;20485;-84
2021/03/13 02:56:01;;;;;;;3.53;0.52;;;11.60;71.50;;;;;;5051868;28;20032;-83
2021/03/13 02:58:27;;;;;;;1.60;0.00;;;11.60;71.50;;;;;;5035603;28;20037;-83
2021/03/13 03:00:54;;;;;;;8.48;0.55;;;11.60;71.40;;;;;;5029382;28;20052;-84
2021/03/13 03:03:20;;;;;;;0.25;0.03;;;11.60;71.40;;;;;;5040317;28;20028;-82
2021/03/13 03:05:46;;;;;;;0.40;0.30;;;11.60;71.40;;;;;;5028842;28;20033;-83
2021/03/13 03:08:12;;;;;;;1.38;0.22;;;11.60;71.40;;;;;;5048426;28;20036;-83
2021/03/13 03:10:43;;;;;;;1.08;0.08;;;11.60;71.50;;;;;;5047646;28;20474;-83
2021/03/13 03:13:09;;;;;;;13.05;0.13;;;11.60;71.50;;;;;;5030898;28;20084;-83
2021/03/13 03:15:36;;;;;;;12.73;0.30;;;11.60;71.50;;;;;;5053801;28;20044;-82
2021/03/13 03:18:08;;;;;;;0.88;0.20;;;11.60;71.60;;;;;;5024393;28;20052;-83
2021/03/13 03:20:34;;;;;;;0.00;0.00;;;11.60;71.60;;;;;;5031509;28;20032;-83
2021/03/13 03:23:00;;;;;;;0.00;0.00;;;11.60;71.70;;;;;;5048085;28;20040;-83
2021/03/13 03:25:26;;;;;;;0.10;0.00;;;11.50;71.60;;;;;;5050736;28;20037;-83
2021/03/13 03:27:53;;;;;;;0.00;0.00;;;11.60;71.70;;;;;;5049191;28;20384;-83
2021/03/13 03:30:20;;;;;;;2.17;0.15;;;11.50;71.60;;;;;;5045538;28;20029;-83
2021/03/13 03:32:46;;;;;;;0.20;0.00;;;11.50;71.60;;;;;;5046539;28;20045;-83
2021/03/13 03:35:13;;;;;;;0.28;0.00;;;11.50;71.60;;;;;;5042955;28;20670;-83
2021/03/13 03:37:39;;;;;;;11.90;0.10;;;11.50;71.60;;;;;;5030657;28;20420;-83
2021/03/13 03:40:06;;;;;;;1.25;0.10;;;11.60;71.60;;;;;;5057670;28;20032;-83
2021/03/13 03:42:32;;;;;;;1.63;0.40;;;11.50;71.60;;;;;;5048935;28;20422;-83
2021/03/13 03:44:58;;;;;;;3.92;0.20;;;11.60;71.60;;;;;;5035817;28;20029;-82
2021/03/13 03:47:24;;;;;;;6.30;0.03;;;11.60;71.50;;;;;;5053122;28;20069;-83
2021/03/13 03:49:50;;;;;;;0.00;0.00;;;11.60;71.50;;;;;;5049655;28;20040;-83
2021/03/13 03:52:16;;;;;;;1.45;0.08;;;11.60;71.50;;;;;;5061598;28;20424;-83
2021/03/13 03:54:42;;;;;;;1.45;0.47;;;11.70;71.50;;;;;;5053816;28;20029;-83
2021/03/13 03:57:09;;;;;;;2.67;0.32;;;11.60;71.50;;;;;;5052029;28;20478;-83
2021/03/13 03:59:36;;;;;;;0.28;0.13;;;11.60;71.40;;;;;;5051206;28;20387;-83
2021/03/13 04:02:02;;;;;;;0.80;0.45;;;11.70;71.40;;;;;;5033825;28;20092;-83
2021/03/13 04:04:28;;;;;;;0.20;0.10;;;11.60;71.30;;;;;;5052566;28;20037;-83
2021/03/13 04:06:54;;;;;;;0.20;0.00;;;11.70;71.30;;;;;;5034570;28;20042;-83
2021/03/13 04:09:23;;;;;;;0.75;0.10;;;11.70;71.20;;;;;;5037020;28;20469;-83
2021/03/13 04:11:53;;;;;;;0.90;0.25;;;11.70;71.10;;;;;;5036172;28;20034;-83
2021/03/13 04:14:19;;;;;;;1.48;0.13;;;11.70;71.20;;;;;;5034026;28;20382;-83
2021/03/13 04:16:45;;;;;;;0.00;0.00;;;11.70;71.10;;;;;;5037709;28;20044;-83
2021/03/13 04:19:11;;;;;;;1.55;0.43;;;11.60;71.00;;;;;;5056017;28;20029;-83
2021/03/13 04:21:38;;;;;;;0.25;0.00;;;11.60;71.00;;;;;;5067558;28;20029;-83
2021/03/13 04:24:04;;;;;;;0.90;0.17;;;11.70;71.00;;;;;;5045812;28;20033;-82
2021/03/13 04:26:30;;;;;;;1.65;0.15;;;11.70;71.00;;;;;;5035765;28;20044;-83
2021/03/13 04:28:56;;;;;;;0.00;0.00;;;11.70;71.00;;;;;;5031983;28;20502;-82
2021/03/13 04:31:28;;;;;;;0.65;0.20;;;11.70;71.00;;;;;;5028120;28;20044;-83
2021/03/13 04:33:54;;;;;;;;;;;11.70;71.00;;;;;;5056300;28;20041;-82
2021/03/13 04:36:20;;;;;;;0.00;0.00;;;11.70;71.00;;;;;;5052357;28;20361;-83
2021/03/13 04:38:46;;;;;;;0.00;0.00;;;11.70;71.70;;;;;;5036119;28;20033;-83
2021/03/13 04:41:12;;;;;;;1.65;0.22;;;11.70;71.00;;;;;;5035511;28;20497;-83
2021/03/13 04:43:38;;;;;;;0.10;0.10;;;11.70;71.00;;;;;;5052564;28;20041;-82
2021/03/13 04:46:04;;;;;;;3.03;0.25;;;11.70;71.00;;;;;;5031510;28;20496;-82
2021/03/13 04:48:31;;;;;;;1.45;0.03;;;11.70;71.10;;;;;;5046501;28;20040;-82
2021/03/13 04:50:59;;;;;;;0.30;0.10;;;11.70;71.10;;;;;;5052450;28;20036;-82
2021/03/13 04:53:25;;;;;;;1.65;0.20;;;11.80;71.20;;;;;;5063483;28;20032;-83
2021/03/13 04:55:51;;;;;;;5.22;0.20;;;11.70;71.10;;;;;;5052949;28;20033;-82
2021/03/13 04:58:17;;;;;;;1.90;0.10;;;11.70;71.10;;;;;;5053806;28;20029;-82
2021/03/13 05:00:45;;;;;;;0.00;0.00;;;11.70;71.10;;;;;;5050755;28;20029;-83
2021/03/13 05:03:11;;;;;;;0.00;0.00;;;11.80;71.10;;;;;;5052816;28;20382;-83
2021/03/13 05:05:37;;;;;;;0.08;0.03;;;11.80;71.10;;;;;;5055227;28;20029;-85
2021/03/13 05:08:03;;;;;;;9.13;0.20;;;11.80;71.10;;;;;;5052106;28;20402;-82
2021/03/13 05:10:29;;;;;;;1.60;0.65;;;11.80;71.10;;;;;;5056070;28;20028;-82
2021/03/13 05:12:55;;;;;;;0.00;0.00;;;11.90;71.20;;;;;;5053038;28;20052;-82
2021/03/13 05:15:23;;;;;;;0.00;0.00;;;11.90;71.20;;;;;;5033451;28;20041;-82
2021/03/13 05:17:49;;;;;;;1.13;0.35;;;11.90;71.20;;;;;;5036358;28;20041;-82
2021/03/13 05:20:16;;;;;;;0.00;0.00;;;11.90;71.30;;;;;;5042920;28;20037;-81
2021/03/13 05:22:46;;;;;;;4.75;0.40;;;11.90;71.40;;;;;;5041048;28;20037;-81
2021/03/13 05:25:12;;;;;;;0.30;0.00;;;11.90;71.50;;;;;;5051697;28;20029;-81
2021/03/13 05:27:39;;;;;;;0.95;0.30;;;11.80;71.60;;;;;;5056126;28;20387;-80
2021/03/13 05:30:08;;;;;;;1.70;0.30;;;11.80;71.70;;;;;;5051670;28;20025;-82
2021/03/13 05:32:34;;;;;;;2.05;0.75;;;11.80;71.80;;;;;;5053768;28;20045;-81
2021/03/13 05:35:01;;;;;;;3.40;0.32;;;11.80;71.90;;;;;;5045011;28;20029;-82
2021/03/13 05:37:27;;;;;;;0.73;0.20;;;11.80;72.10;;;;;;5061522;28;20021;-82
2021/03/13 05:39:53;;;;;;;1.10;0.28;;;11.80;72.10;;;;;;5066460;28;20525;-82
2021/03/13 05:42:19;;;;;;;6.70;0.17;;;11.70;72.10;;;;;;5052510;28;20037;-82
2021/03/13 05:44:45;;;;;;;0.22;0.10;;;11.70;72.20;;;;;;5071022;28;20421;-80
2021/03/13 05:47:11;;;;;;;1.73;0.20;;;11.80;72.40;;;;;;5056905;28;20029;-81
2021/03/13 05:49:38;;;;;;;1.25;0.05;;;11.70;72.50;;;;;;5062112;28;20029;-81
2021/03/13 05:52:06;;;;;;;0.15;0.13;;;11.70;72.60;;;;;;5055545;28;20487;-82
2021/03/13 05:54:32;;;;;;;1.63;0.40;;;11.70;72.70;;;;;;5035406;28;20108;-82
2021/03/13 05:56:59;;;;;;;6.50;0.10;;;11.60;72.80;;;;;;5055863;28;20028;-81
2021/03/13 05:59:25;;;;;;;0.25;0.20;;;11.60;72.80;;;;;;5040644;28;20044;-81
2021/03/13 06:01:52;;;;;;;0.68;0.20;;;11.60;73.00;;;;;;5043351;28;20404;-81
2021/03/13 06:04:18;;;;;;;0.30;0.17;;;11.60;73.20;;;;;;5053589;28;20043;-82
2021/03/13 06:06:44;;;;;;;0.00;0.00;;;11.50;73.40;;;;;;5065908;28;20418;-82
2021/03/13 06:09:11;;;;;;;0.00;0.00;;;11.40;73.60;;;;;;5054752;28;20041;-82
2021/03/13 06:11:37;;;;;;;0.00;0.00;;;11.30;73.90;;;;;;5039192;28;20117;-80
2021/03/13 06:14:04;;;;;;;1.55;0.10;;;11.10;74.00;;;;;;5058482;28;20040;-81
2021/03/13 06:16:33;;;;;;;0.00;0.00;;;11.00;74.30;;;;;;5052291;28;20394;-83
2021/03/13 06:18:59;;;;;;;0.00;0.00;;;10.90;74.40;;;;;;5061947;28;20477;-83
2021/03/13 06:21:32;;;;;;;0.45;0.00;;;10.80;74.50;;;;;;5054498;28;20045;-84
2021/03/13 06:24:24;;;;;;;0.00;0.00;;;10.80;74.70;;;;;;5062191;28;20048;-84
2021/03/13 06:26:54;;;;;;;0.75;0.03;;;10.70;74.70;;;;;;5055605;28;20056;-84
2021/03/13 06:29:21;;;;;;;0.90;0.20;;;10.70;74.70;;;;;;5055662;28;20033;-84
2021/03/13 06:32:13;;;;;;;0.00;0.00;;;10.60;74.90;;;;;;5054617;28;20044;-84
2021/03/13 06:34:41;;;;;;;0.05;0.05;;;10.60;74.80;;;;;;5055442;28;20493;-84
2021/03/13 06:37:24;;;;;;;1.35;0.35;;;10.50;74.70;;;;;;5055058;28;20032;-84
2021/03/13 06:39:54;;;;;;;1.40;0.15;;;10.50;74.80;;;;;;5025015;28;20053;-84
2021/03/13 06:42:28;;;;;;;0.32;0.10;;;10.50;74.80;;;;;;5053337;28;20055;-84
2021/03/13 06:45:01;;;;;;;0.00;0.00;;;10.50;74.80;;;;;;5055859;28;20040;-84
2021/03/13 06:47:38;;;;;;;1.65;0.32;;;10.50;74.70;;;;;;5034183;28;20044;-84
2021/03/13 06:50:17;;;;;;;0.00;0.00;;;10.50;74.60;;;;;;5052717;28;20041;-84
2021/03/13 06:52:54;;;;;;;0.00;0.00;;;10.50;74.60;;;;;;5054876;28;20035;-84
2021/03/13 06:55:24;;;;;;;7.28;0.32;;;10.50;74.50;;;;;;5054772;28;20381;-84
2021/03/13 06:57:51;;;;;;;0.17;0.00;;;10.50;74.50;;;;;;5052616;28;20528;-84
2021/03/13 07:00:31;;;;;;;0.52;0.28;;;10.50;74.50;;;;;;5018461;28;20403;-84
2021/03/13 07:03:07;;;;;;;1.10;0.65;;;10.50;74.50;;;;;;5055019;28;20029;-84
2021/03/13 07:05:33;;;;;;;2.60;0.60;;;10.50;74.40;;;;;;5056304;28;20052;-84
2021/03/13 07:07:59;;;;;;;0.00;0.00;;;10.50;74.40;;;;;;5055954;28;20040;-84
2021/03/13 07:10:27;;;;;;;0.10;0.00;;;10.50;74.40;;;;;;5054249;28;20484;-84
2021/03/13 07:12:53;;;;;;;0.05;0.03;;;10.50;74.40;;;;;;5052587;28;20041;-83
2021/03/13 07:15:26;;;;;;;0.10;0.08;;;10.60;74.40;;;;;;5052139;28;20021;-84
2021/03/13 07:17:58;;;;;;;0.55;0.10;;;10.60;74.40;;;;;;5054889;28;20025;-84
2021/03/13 07:20:29;;;;;;;5.47;0.17;;;10.60;74.40;;;;;;5054526;28;20045;-84
2021/03/13 07:22:59;;;;;;;0.00;0.00;;;10.60;74.40;;;;;;5057025;28;20039;-92
2021/03/13 07:25:26;;;;;;;0.00;0.00;;;10.60;74.40;;;;;;5057770;28;20043;-88
2021/03/13 07:27:57;;;;;;;1.27;0.40;;;10.60;74.30;;;;;;5053594;28;20037;-85
2021/03/13 07:30:24;;;;;;;0.00;0.00;;;10.70;74.30;;;;;;5052408;28;20520;-85
2021/03/13 07:32:51;;;;;;;5.90;0.03;;;10.70;74.20;;;;;;5054513;28;20037;-90
2021/03/13 07:35:17;;;;;;;1.50;0.30;;;10.70;74.00;;;;;;5035916;28;20166;-83
2021/03/13 07:37:43;;;;;;;0.10;0.00;;;10.70;74.00;;;;;;5036832;28;20241;-82
2021/03/13 07:40:15;;;;;;;0.00;0.00;;;10.70;74.00;;;;;;5050261;28;20041;-85
2021/03/13 07:42:43;;;;;;;0.43;0.20;;;10.70;74.00;;;;;;5035746;28;20057;-83
2021/03/13 07:45:12;;;;;;;1.55;0.25;;;10.70;74.00;;;;;;5047682;28;20033;-83
2021/03/13 07:47:41;;;;;;;1.58;0.25;;;10.70;74.00;;;;;;5049904;28;20029;-84
2021/03/13 07:50:12;;;;;;;0.28;0.10;;;10.70;74.00;;;;;;5049219;28;20043;-85
2021/03/13 07:52:38;;;;;;;5.45;0.45;;;10.70;73.90;;;;;;5032147;28;20513;-85
2021/03/13 07:55:14;;;;;;;7.03;0.20;;;10.70;73.90;;;;;;5048335;28;20036;-85
2021/03/13 07:57:47;;;;;;;1.60;0.13;;;10.80;73.90;;;;;;5036526;28;20037;-84
2021/03/13 08:00:13;;;;;;;0.00;0.00;;;10.80;73.90;;;;;;5046257;28;20033;-84
2021/03/13 08:02:43;;;;;;;0.00;0.00;;;10.80;73.80;;;;;;5050526;28;20025;-87
2021/03/13 08:05:10;;;;;;;7.75;1.00;;;10.90;73.80;;;;;;5040710;28;20350;-87
2021/03/13 08:07:52;;;;;;;0.52;0.30;;;10.80;73.60;;;;;;5047847;28;20029;-91
2021/03/13 08:10:41;;;;;;;0.00;0.00;;;10.90;73.60;;;;;;5048185;28;20040;-87
2021/03/13 08:13:07;;;;;;;5.47;0.40;;;10.90;73.50;;;;;;5049342;28;20406;-89
2021/03/13 08:15:33;;;;;;;0.47;0.17;;;10.90;73.40;;;;;;5048347;28;20049;-89
2021/03/13 08:18:00;;;;;;;0.20;0.10;;;10.90;73.40;;;;;;5051640;28;20032;-89
2021/03/13 08:20:30;;;;;;;7.63;0.20;;;10.90;73.40;;;;;;5048575;28;20037;-83
2021/03/13 08:23:11;;;;;;;2.35;0.28;;;11.00;73.40;;;;;;5048677;28;20025;-85
2021/03/13 08:26:04;;;;;;;;;;;11.10;73.40;;;;;;5043578;28;20032;-88
2021/03/13 08:28:45;;;;;;;0.00;0.00;;;11.10;73.20;;;;;;5048086;28;20361;-87
2021/03/13 08:31:23;;;;;;;;;;;11.20;73.00;;;;;;5052489;28;20486;-85
2021/03/13 08:33:56;;;;;;;0.08;0.00;;;11.30;73.00;;;;;;5052852;28;19943;-85
2021/03/13 08:36:27;;;;;;;0.00;0.00;;;11.30;72.90;;;;;;5052043;28;20032;-84
2021/03/13 08:39:07;;;;;;;3.13;0.43;;;11.30;72.90;;;;;;5053787;28;20037;-88
2021/03/13 08:41:56;;;;;;;0.00;0.00;;;11.30;73.00;;;;;;5054301;28;20512;-85
2021/03/13 08:44:25;;;;;;;5.28;0.25;;;11.30;73.10;;;;;;5041305;28;20037;-86
2021/03/13 08:47:03;;;;;;;1.92;0.20;;;11.30;73.00;;;;;;5053608;28;20514;-85
2021/03/13 08:49:30;;;;;;;3.35;0.10;;;11.40;73.00;;;;;;5051026;28;20056;-85
2021/03/13 08:52:05;;;;;;;6.38;0.20;;;11.40;73.00;;;;;;5053692;28;20035;-83
2021/03/13 08:54:40;;;;;;;0.13;0.13;;;11.50;73.00;;;;;;5053198;28;20037;-82
2021/03/13 08:57:10;;;;;;;0.30;0.10;;;11.50;72.90;;;;;;5050538;28;20473;-83
2021/03/13 08:59:37;;;;;;;1.15;0.10;;;11.50;72.80;;;;;;5055501;28;20029;-82
2021/03/13 09:02:12;;;;;;;0.00;0.00;;;11.60;72.90;;;;;;5056341;28;20037;-82
2021/03/13 09:04:43;;;;;;;3.33;0.10;;;11.60;72.80;;;;;;5036591;28;20061;-82
2021/03/13 09:07:09;;;;;;;1.05;0.20;;;11.60;72.80;;;;;;5046492;28;20035;-82
2021/03/13 09:09:37;;;;;;;7.65;0.22;;;11.60;72.80;;;;;;5020380;28;20029;-82
2021/03/13 09:12:13;;;;;;;5.07;0.60;;;11.60;72.90;;;;;;5065711;28;20477;-82
2021/03/13 09:14:50;;;;;;;0.38;0.03;;;11.60;73.00;;;;;;5057241;28;20485;-82
2021/03/13 09:17:17;;;;;;;5.38;1.20;;;11.60;73.10;;;;;;5057541;28;20034;-82
2021/03/13 09:19:46;;;;;;;14.80;2.63;;;11.50;73.10;;;;;;5056192;28;20394;-82
2021/03/13 09:22:19;;;;;;;9.70;3.30;;;11.50;73.10;;;;;;5056770;28;20370;-82
2021/03/13 09:24:52;;;;;;;10.88;1.48;;;11.60;73.20;;;;;;5052559;28;20390;-82
2021/03/13 09:27:23;;;;;;;11.35;1.33;;;11.60;73.10;;;;;;5051942;28;20028;-81
2021/03/13 09:29:51;;;;;;;25.33;8.50;;;11.70;73.10;;;;;;5055552;28;20029;-83
2021/03/13 09:32:17;;;;;;;6.85;2.88;;;11.70;73.10;;;;;;5061428;28;20032;-83
2021/03/13 09:34:44;;;;;;;20.80;4.93;;;11.70;73.10;;;;;;5038259;28;20132;-82
2021/03/13 09:37:10;;;;;;;15.90;3.85;;;11.70;73.00;;;;;;5055873;28;20497;-82
2021/03/13 09:39:36;;;;;;;2.42;1.60;;;11.70;73.00;;;;;;5052791;28;20044;-82
2021/03/13 09:42:12;;;;;;;2.47;1.75;;;11.70;73.00;;;;;;5055208;28;20048;-82
2021/03/13 09:44:46;;;;;;;18.52;3.85;;;11.70;73.00;;;;;;5054804;28;20033;-81
2021/03/13 09:47:27;;;;;;;2.83;0.98;;;11.70;73.10;;;;;;5055480;28;20045;-82
2021/03/13 09:49:57;;;;;;;9.73;2.88;;;11.70;73.10;;;;;;5056152;28;20025;-81
2021/03/13 09:52:25;;;;;;;17.90;2.85;;;11.70;73.10;;;;;;5052333;28;20025;-82
2021/03/13 09:55:18;;;;;;;15.75;6.95;;;11.70;73.00;;;;;;5031882;28;20426;-81
2021/03/13 09:57:49;;;;;;;9.45;3.30;;;11.70;73.10;;;;;;5067936;28;20048;-82
2021/03/13 10:00:22;;;;;;;5.60;1.73;;;11.70;73.10;;;;;;5053781;28;20032;-81
2021/03/13 10:02:49;;;;;;;9.70;2.55;;;11.70;73.10;;;;;;5054453;28;20021;-81
2021/03/13 10:05:16;;;;;;;13.55;3.97;;;11.60;73.20;;;;;;5056721;28;20037;-82
2021/03/13 10:07:44;;;;;;;5.68;1.17;;;11.60;73.20;;;;;;5057789;28;20028;-82
2021/03/13 10:10:13;;;;;;;23.83;2.85;;;11.60;73.30;;;;;;5067938;28;20040;-81
2021/03/13 10:12:43;;;;;;;26.08;3.83;;;11.70;73.30;;;;;;5052798;28;20021;-82
2021/03/13 10:15:17;;;;;;;16.92;2.05;;;11.90;73.00;;;;;;5055636;28;20044;-81
2021/03/13 10:17:49;;;;;;;7.25;2.22;;;12.20;72.60;;;;;;5056486;28;20032;-82
2021/03/13 10:20:16;;;;;;;12.93;4.18;;;12.40;72.10;;;;;;5057069;28;20037;-81
2021/03/13 10:22:42;;;;;;;5.70;0.50;;;12.60;71.80;;;;;;5056733;28;20037;-82
2021/03/13 10:25:09;;;;;;;17.17;2.88;;;12.70;71.50;;;;;;5056676;28;20385;-81
2021/03/13 10:27:35;;;;;;;7.95;1.67;;;12.80;71.30;;;;;;5045167;28;20032;-82
2021/03/13 10:30:02;;;;;;;10.77;2.40;;;12.90;71.10;;;;;;5035770;28;20044;-83
2021/03/13 10:32:31;;;;;;;7.28;2.50;;;13.10;71.00;;;;;;5061408;28;20048;-83
2021/03/13 10:35:17;;;;;;;2.40;1.13;;;13.40;70.70;;;;;;5056202;28;20489;-82
2021/03/13 10:37:51;;;;;;;6.75;0.93;;;13.70;70.00;;;;;;5055760;28;20029;-83
2021/03/13 10:40:35;;;;;;;9.68;1.17;;;14.00;69.60;;;;;;5055700;28;20033;-84
2021/03/13 10:43:20;;;;;;;1.38;0.43;;;14.10;69.20;;;;;;5053018;28;20045;-85
2021/03/13 10:46:01;;;;;;;5.55;1.40;;;14.10;69.00;;;;;;5038197;28;20048;-83
2021/03/13 10:48:32;;;;;;;13.48;2.85;;;14.30;68.90;;;;;;5051295;28;20040;-83
2021/03/13 10:50:58;;;;;;;2.28;0.55;;;14.50;68.60;;;;;;5070654;28;20025;-87
2021/03/13 10:53:37;;;;;;;3.70;0.85;;;14.60;68.10;;;;;;5038041;28;20423;-84
2021/03/13 10:56:05;;;;;;;3.10;1.25;;;14.60;67.70;;;;;;5055679;28;20036;-84
2021/03/13 10:58:51;;;;;;;2.28;0.50;;;14.50;67.70;;;;;;5054461;28;20504;-85
2021/03/13 11:01:19;;;;;;;1.88;0.40;;;14.50;67.70;;;;;;5053494;28;20031;-84
2021/03/13 11:03:47;;;;;;;3.33;0.50;;;14.50;67.70;;;;;;5033984;28;20055;-84
2021/03/13 11:06:17;;;;;;;5.45;0.95;;;14.40;67.60;;;;;;5053100;28;20029;-84
2021/03/13 11:08:43;;;;;;;2.08;1.15;;;14.30;67.70;;;;;;5054239;28;20553;-82
2021/03/13 11:11:09;;;;;;;2.47;1.05;;;14.30;67.50;;;;;;5054254;28;20040;-83
2021/03/13 11:13:35;;;;;;;5.10;0.95;;;14.40;67.30;;;;;;5054879;28;20393;-84
2021/03/13 11:16:01;;;;;;;7.07;0.38;;;14.50;66.90;;;;;;5052211;28;20040;-84
2021/03/13 11:18:27;;;;;;;1.50;0.50;;;14.70;66.40;;;;;;5033458;28;20048;-82
2021/03/13 11:20:53;;;;;;;0.25;0.22;;;14.90;65.90;;;;;;5049053;28;20040;-85
2021/03/13 11:23:20;;;;;;;6.47;0.40;;;15.00;65.40;;;;;;5054073;28;20025;-87
2021/03/13 11:25:47;;;;;;;3.00;1.00;;;15.00;65.30;;;;;;5056412;28;20033;-85
2021/03/13 11:28:13;;;;;;;0.95;0.13;;;15.10;65.10;;;;;;5064861;28;20032;-87
2021/03/13 11:30:39;;;;;;;4.15;0.50;;;15.20;64.70;;;;;;5048948;28;20087;-86
2021/03/13 11:33:06;;;;;;;0.90;0.10;;;15.40;64.50;;;;;;5067631;28;20040;-86
2021/03/13 11:35:32;;;;;;;1.35;0.38;;;15.40;64.10;;;;;;5032164;28;20047;-86
2021/03/13 11:37:58;;;;;;;8.13;0.68;;;15.50;63.70;;;;;;5054051;28;20403;-86
2021/03/13 11:40:24;;;;;;;0.20;0.20;;;15.50;63.50;;;;;;5054937;28;20033;-88
2021/03/13 11:42:52;;;;;;;1.90;0.25;;;15.50;63.30;;;;;;5051038;28;20092;-84
2021/03/13 11:45:18;;;;;;;0.93;0.28;;;15.50;63.00;;;;;;5052543;28;20037;-85
2021/03/13 11:47:45;;;;;;;2.17;0.40;;;15.40;62.80;;;;;;5054722;28;20040;-91
2021/03/13 11:50:12;;;;;;;3.53;0.45;;;15.40;62.70;;;;;;5054031;28;20033;-90
2021/03/13 11:52:38;;;;;;;1.58;0.60;;;15.40;62.70;;;;;;5055297;28;20020;-83
2021/03/13 11:55:06;;;;;;;5.47;0.63;;;15.20;62.30;;;;;;5053616;28;20052;-84
2021/03/13 11:57:32;;;;;;;1.85;0.28;;;15.20;62.20;;;;;;5054274;28;20028;-84
2021/03/13 11:59:58;;;;;;;0.52;0.00;;;15.30;62.20;;;;;;5037141;28;20029;-83
2021/03/13 12:02:24;;;;;;;4.97;0.20;;;15.40;61.60;;;;;;5053972;28;20033;-84
2021/03/13 12:04:50;;;;;;;2.55;0.70;;;15.50;61.10;;;;;;5053081;28;20039;-84
2021/03/13 12:07:16;;;;;;;2.78;0.20;;;15.50;60.80;;;;;;5052228;28;20036;-84
2021/03/13 12:09:43;;;;;;;12.05;0.65;;;15.50;60.80;;;;;;5068879;28;20393;-82
2021/03/13 12:12:10;;;;;;;12.75;1.23;;;15.50;60.90;;;;;;5057759;28;20036;-82
2021/03/13 12:14:37;;;;;;;14.35;1.08;;;15.50;60.80;;;;;;5057044;28;20045;-83
2021/03/13 12:17:03;;;;;;;15.73;0.60;;;15.60;60.80;;;;;;5057533;28;20025;-82
2021/03/13 12:19:29;;;;;;;3.30;0.75;;;15.70;60.70;;;;;;5055997;28;20041;-83
2021/03/13 12:21:56;;;;;;;0.10;0.00;;;15.70;60.60;;;;;;5053803;28;20716;-81
2021/03/13 12:24:23;;;;;;;1.90;0.50;;;15.70;60.60;;;;;;5054572;28;20029;-80
2021/03/13 12:26:49;;;;;;;1.58;0.30;;;15.60;60.70;;;;;;5059113;28;20029;-80
2021/03/13 12:29:15;;;;;;;1.45;0.22;;;15.50;60.80;;;;;;5057848;28;20040;-82
2021/03/13 12:31:41;;;;;;;0.63;0.17;;;15.60;60.50;;;;;;5049419;28;20025;-80
2021/03/13 12:34:07;;;;;;;2.53;0.20;;;15.60;60.30;;;;;;5056601;28;20051;-82
2021/03/13 12:36:34;;;;;;;7.97;0.20;;;15.60;60.20;;;;;;5040410;28;20077;-82
2021/03/13 12:39:00;;;;;;;1.08;0.30;;;15.60;59.90;;;;;;5040533;28;20500;-82
2021/03/13 12:41:26;;;;;;;1.00;0.52;;;15.70;59.70;;;;;;5058165;28;20037;-82
2021/03/13 12:43:52;;;;;;;0.10;0.08;;;15.70;59.50;;;;;;5056508;28;20033;-83
2021/03/13 12:46:18;;;;;;;0.55;0.25;;;15.70;59.40;;;;;;5049187;28;20039;-83
2021/03/13 12:48:45;;;;;;;7.90;0.20;;;15.60;59.20;;;;;;5053489;28;20043;-82
2021/03/13 12:51:11;;;;;;;0.15;0.00;;;15.60;59.00;;;;;;5057333;28;20509;-88
2021/03/13 12:53:37;;;;;;;8.27;1.58;;;15.70;58.80;;;;;;5057906;28;20052;-88